PST,Max TemperatureF,Mean TemperatureF,Min TemperatureF,Max Dew PointF,MeanDew PointF,Min DewpointF,Max Humidity, Mean Humidity, Min Humidity, Max Sea Level PressureIn, Mean Sea Level PressureIn, Min Sea Level PressureIn, Max VisibilityMiles, Mean VisibilityMiles, Min VisibilityMiles, Max Wind SpeedMPH, Mean Wind SpeedMPH, Max Gust SpeedMPH,PrecipitationIn, CloudCover, Events, WindDirDegrees
2012-11-1,57,54,51,52,49,48,93,85,72,30.01,29.85,29.73,10,10,6,16,8,22,0.12,8,Rain,159
2012-11-2,60,56,51,50,49,47,89,83,62,30.04,30.01,29.97,10,10,10,14,8,,0.07,5,Rain,166
2012-11-3,57,55,53,54,51,50,94,87,81,30.19,30.05,29.97,10,10,7,25,12,37,0.03,7,Rain,174
2012-11-4,63,58,53,58,54,51,94,85,75,30.27,30.21,30.17,10,10,2,28,12,39,0.09,7,Rain,171
2012-11-5,55,50,46,49,45,41,93,79,64,30.40,30.34,30.18,10,10,7,8,4,,0.00,4,,355
2012-11-6,55,50,45,50,46,42,94,84,76,30.16,30.01,29.92,10,9,3,26,5,36,0.02,6,Rain,186
2012-11-7,50,46,39,45,41,36,93,82,66,30.14,30.08,29.95,10,10,3,9,4,,0.07,6,Rain,103
2012-11-8,48,42,36,37,35,32,87,76,58,29.94,29.85,29.82,10,10,10,10,6,16,0.00,1,,353
2012-11-9,44,40,35,36,33,27,93,82,55,29.96,29.89,29.84,10,10,6,5,1,,0.00,2,,5
2012-11-10,43,36,30,33,28,22,96,79,43,30.22,30.08,29.97,10,7,0,7,1,,0.00,2,Fog,57
2012-11-11,45,40,34,40,33,26,93,78,61,30.24,30.16,30.08,10,8,3,16,7,17,0.18,7,Rain,125
2012-11-12,48,44,41,46,43,39,93,91,87,30.21,30.13,30.07,10,6,1,13,7,21,0.06,8,Rain,147
2012-11-13,50,49,48,47,46,45,93,90,82,30.22,30.18,30.14,10,8,0,10,8,,0.28,8,Fog-Rain,159
2012-11-14,50,44,39,46,43,37,97,88,71,30.33,30.27,30.18,10,7,0,7,2,,0.01,6,Fog-Rain,291
2012-11-15,46,40,35,40,38,34,100,91,74,30.27,30.13,29.95,10,4,0,6,1,,0.00,3,Fog,12
2012-11-16,48,42,35,42,37,34,100,87,66,29.94,29.87,29.72,10,6,0,13,5,,0.27,7,Fog-Rain-Snow,144
2012-11-17,55,48,42,45,40,38,89,78,55,29.70,29.58,29.46,10,9,2,23,12,28,0.23,7,Rain,161
2012-11-18,48,45,42,42,41,38,90,84,77,29.75,29.67,29.54,10,9,4,22,13,36,0.73,7,Rain,157
2012-11-19,53,50,46,50,46,41,93,85,74,29.69,29.49,29.36,10,7,2,34,12,46,1.85,7,Rain,161
2012-11-20,50,47,44,45,42,39,89,81,71,29.68,29.62,29.52,10,10,5,21,11,34,0.26,5,Rain,158
2012-11-21,46,44,41,41,38,37,87,81,71,30.30,29.85,29.53,10,9,3,26,13,33,0.46,7,Rain,187
2012-11-22,48,44,41,38,35,31,86,71,50,30.37,30.30,30.20,10,10,10,13,5,18,0.00,7,Rain,141
2012-11-23,50,47,44,47,44,36,93,89,68,30.20,30.09,30.04,10,6,1,18,8,25,0.36,8,Rain,190
2012-11-24,48,42,37,43,40,35,93,85,71,30.27,30.23,30.15,10,10,5,5,2,,0.06,6,Rain,84
2012-11-25,45,40,35,39,36,33,100,91,76,30.36,30.30,30.24,10,7,0,7,1,,0.00,4,Fog,360
2012-11-26,46,40,34,34,32,30,93,80,58,30.24,30.13,30.07,10,9,5,5,3,,0.00,1,,15
2012-11-27,50,44,37,36,32,28,83,68,52,30.08,30.02,29.89,10,10,10,5,1,,0.00,2,,55
2012-11-28,48,42,37,43,38,33,90,80,54,29.89,29.73,29.62,10,9,4,12,2,18,0.22,5,Rain,129
2012-11-29,51,50,48,45,42,40,83,78,66,29.70,29.57,29.45,10,10,9,12,8,21,0.14,8,Rain,130
2012-11-30,52,49,46,48,45,41,94,86,77,29.46,29.43,29.37,10,7,2,16,9,24,1.38,8,Rain,152